nws-alerts: Checking more than four warning/county codes can delay the loading of your pages. You should use a cron job to get the data.

Nearby METAR Reports

 

KOXC - Oxford/Waterbury, Connecticut, USA
Distance from station: NW 7mi, 11km
Updated: 02/22/2024 9:51am
Overcast
Overcast
 Wind from SSW
Wind: SSW 9 mph , 15 km/h
Temperature: 34°F , 1°C
Wind Chill: 27°F , -3°C
Dew Point: 27°F , -3°C
Humidity: 75%
Barometer: 30.03 inHg , 1016.9 hPa
Clouds: Overcast
Visibility: 10 miles , 16 km
Cloud details: Overcast 1600 ft
2024/02/22 14:51 KOXC 221451Z 21008KT 10SM OVC016 01/M03 A3003 RMK AO2 SLP190 T00061033 58023 FZRANO
KHVN - New Haven/Tweed, Connecticut, USA
Distance from station: SE 13mi, 20km
Updated: 02/22/2024 9:53am
Overcast
Overcast
 Wind from S
Wind: S 10 mph , 17 km/h
Temperature: 37°F , 3°C
Wind Chill: 30°F , -1°C
Dew Point: 28°F , -2°C
Humidity: 70%
Barometer: 30.07 inHg , 1018.3 hPa
Clouds: Overcast
Visibility: 10 miles , 16 km
Cloud details: Overcast 2200 ft
2024/02/22 14:53 KHVN 221453Z 19009KT 10SM OVC022 03/M02 A3007 RMK AO2 SLP183 T00331017 58021 $
 
KMMK - Meriden, Connecticut, USA
Distance from station: NE 13mi, 21km
Updated: 02/22/2024 9:53am
Overcast
Overcast
 Wind from SSE
Wind: SSE 7 mph , 11 km/h
Temperature: 34°F , 1°C
Wind Chill: 28°F , -2°C
Dew Point: 25°F , -4°C
Humidity: 70%
Barometer: 30.06 inHg , 1017.9 hPa
Clouds: Overcast
Visibility: 10 miles , 16 km
Cloud details: Overcast 2000 ft
2024/02/22 14:53 KMMK 221453Z AUTO 16006KT 10SM OVC020 01/M04 A3006 RMK AO2 SLP180 T00111039 58025
KBDR - Bridgeport, Connecticut, USA
Distance from station: SSW 17mi, 27km
Updated: 02/22/2024 9:52am
Overcast
Overcast
 Wind from SSW
Wind: SSW 12 mph , 19 km/h
Temperature: 37°F , 3°C
Wind Chill: 29°F , -2°C
Dew Point: 28°F , -2°C
Humidity: 70%
Barometer: 30.07 inHg , 1018.3 hPa
Clouds: Overcast
Visibility: 10 miles , 16 km
Cloud details: Overcast 2200 ft
2024/02/22 14:52 KBDR 221452Z 21010KT 10SM OVC022 03/M02 A3007 RMK AO2 SLP183 T00281022 58021 $
 
KDXR - Danbury, Connecticut, USA
Distance from station: W 23mi, 38km
Updated: 02/22/2024 9:53am
Overcast
Overcast
 Wind from varies
Wind: varies 5 mph , 7 km/h
Temperature: 36°F , 2°C
Wind Chill: 32°F , 0°C
Dew Point: 27°F , -3°C
Humidity: 70%
Barometer: 30.04 inHg , 1017.3 hPa
Clouds: Overcast
Visibility: 10 miles , 16 km
Cloud details: Overcast 1800 ft
2024/02/22 14:53 KDXR 221453Z VRB04KT 10SM OVC018 02/M03 A3004 RMK AO2 SLP176 T00171033 58023